createdAt,value
2019-05-09T00:00:09.147Z,0
2019-05-09T00:01:09.309Z,0
2019-05-09T00:02:09.396Z,0
2019-05-09T00:03:09.423Z,0
2019-05-09T00:04:09.615Z,0
2019-05-09T00:05:09.925Z,0
2019-05-09T00:06:09.842Z,0
2019-05-09T00:07:09.882Z,0
2019-05-09T00:08:10.816Z,0
2019-05-09T00:09:10.029Z,0
2019-05-09T00:10:10.080Z,0
2019-05-09T00:11:10.056Z,0
2019-05-09T00:12:10.280Z,0
2019-05-09T00:13:10.275Z,0
2019-05-09T00:14:10.402Z,0
2019-05-09T00:15:10.462Z,0
2019-05-09T00:16:10.489Z,0
2019-05-09T00:17:10.511Z,0
2019-05-09T00:18:10.568Z,0
2019-05-09T00:19:10.652Z,0
2019-05-09T00:20:10.746Z,0
2019-05-09T00:21:10.870Z,0
2019-05-09T00:22:10.919Z,0
2019-05-09T00:23:13.305Z,0
2019-05-09T00:24:10.999Z,0
2019-05-09T00:25:13.096Z,0
2019-05-09T00:26:13.319Z,0
2019-05-09T00:27:11.178Z,0
2019-05-09T00:28:12.783Z,0
2019-05-09T00:29:11.255Z,0
2019-05-09T00:30:11.344Z,0
2019-05-09T00:31:13.430Z,0
2019-05-09T00:32:13.487Z,0
2019-05-09T00:33:11.584Z,0
2019-05-09T00:34:14.153Z,0
2019-05-09T00:35:13.877Z,0
2019-05-09T00:36:13.889Z,0
2019-05-09T00:37:13.505Z,0
2019-05-09T00:38:13.244Z,0
2019-05-09T00:39:13.338Z,0
2019-05-09T00:40:13.177Z,0
2019-05-09T00:41:13.923Z,0
2019-05-09T00:42:13.648Z,0
2019-05-09T00:43:13.161Z,0
2019-05-09T00:44:13.844Z,0
2019-05-09T00:45:13.292Z,0
2019-05-09T00:46:14.088Z,0
2019-05-09T00:47:13.485Z,0
2019-05-09T00:48:14.043Z,0
2019-05-09T00:49:14.002Z,0
2019-05-09T00:50:13.226Z,0
2019-05-09T00:51:14.183Z,0
2019-05-09T00:52:13.999Z,0
2019-05-09T00:53:14.236Z,0
2019-05-09T00:54:13.600Z,0
2019-05-09T00:55:14.391Z,0
2019-05-09T00:56:14.448Z,0
2019-05-09T00:57:14.441Z,0
2019-05-09T00:58:13.708Z,0
2019-05-09T00:59:14.695Z,0
2019-05-09T01:00:14.888Z,0
2019-05-09T01:01:14.963Z,0
2019-05-09T01:02:13.875Z,0
2019-05-09T01:03:15.029Z,0
2019-05-09T01:04:14.138Z,0
2019-05-09T01:05:15.290Z,0
2019-05-09T01:06:14.433Z,0
2019-05-09T01:07:15.602Z,0
2019-05-09T01:08:14.563Z,0
2019-05-09T01:09:14.674Z,0
2019-05-09T01:10:15.882Z,0
2019-05-09T01:11:15.641Z,0
2019-05-09T01:12:15.976Z,0
2019-05-09T01:13:14.932Z,0
2019-05-09T01:14:15.040Z,0
2019-05-09T01:15:15.169Z,0
2019-05-09T01:16:15.315Z,0
2019-05-09T01:17:15.428Z,0
2019-05-09T01:18:15.567Z,0
2019-05-09T01:19:16.673Z,0
2019-05-09T01:20:15.797Z,0
2019-05-09T01:21:15.954Z,0
2019-05-09T01:22:16.108Z,0
2019-05-09T01:23:16.238Z,0
2019-05-09T01:24:16.369Z,0
2019-05-09T01:25:16.498Z,0
2019-05-09T01:26:16.632Z,0
2019-05-09T01:27:16.772Z,0
2019-05-09T01:28:16.741Z,0
2019-05-09T01:29:16.854Z,0
2019-05-09T01:30:16.990Z,0
2019-05-09T01:31:17.138Z,0
2019-05-09T01:32:17.288Z,0
2019-05-09T01:33:17.248Z,0
2019-05-09T01:34:17.408Z,0
2019-05-09T01:35:17.404Z,0
2019-05-09T01:36:17.369Z,0
2019-05-09T01:37:17.542Z,0
2019-05-09T01:38:17.553Z,0
2019-05-09T01:39:17.559Z,0
2019-05-09T01:40:17.574Z,0
2019-05-09T01:41:27.717Z,0
2019-05-09T01:42:18.806Z,0
2019-05-09T01:43:17.827Z,0
2019-05-09T01:44:17.791Z,0
2019-05-09T01:45:17.961Z,0
2019-05-09T01:46:17.929Z,0
2019-05-09T01:47:17.929Z,0
2019-05-09T01:48:17.996Z,0
2019-05-09T01:49:17.989Z,0
2019-05-09T01:50:18.046Z,0
2019-05-09T01:51:18.064Z,0
2019-05-09T01:52:18.076Z,0
2019-05-09T01:53:18.080Z,0
2019-05-09T01:54:18.189Z,0
2019-05-09T01:55:18.209Z,0
2019-05-09T01:56:18.192Z,0
2019-05-09T01:57:18.180Z,0
2019-05-09T01:58:18.212Z,0
2019-05-09T01:59:18.193Z,0
2019-05-09T02:00:18.340Z,0
2019-05-09T02:01:18.528Z,0
2019-05-09T02:02:18.508Z,0
2019-05-09T02:03:18.555Z,0
2019-05-09T02:04:19.513Z,0
2019-05-09T02:05:18.525Z,0
2019-05-09T02:06:18.660Z,0
2019-05-09T02:07:18.775Z,0
2019-05-09T02:08:18.951Z,0
2019-05-09T02:09:19.102Z,0
2019-05-09T02:10:19.061Z,0
2019-05-09T02:11:19.176Z,0
2019-05-09T02:12:20.298Z,0
2019-05-09T02:13:19.296Z,0
2019-05-09T02:14:19.437Z,0
2019-05-09T02:15:19.568Z,0
2019-05-09T02:16:19.706Z,0
2019-05-09T02:17:19.850Z,0
2019-05-09T02:18:19.996Z,0
2019-05-09T02:19:20.267Z,0
2019-05-09T02:20:20.238Z,0
2019-05-09T02:21:20.371Z,0
2019-05-09T02:22:20.490Z,0
2019-05-09T02:23:20.639Z,0
2019-05-09T02:24:20.639Z,0
2019-05-09T02:25:20.628Z,0
2019-05-09T02:26:20.765Z,0
2019-05-09T02:27:20.881Z,0
2019-05-09T02:28:21.012Z,0
2019-05-09T02:29:23.145Z,0
2019-05-09T02:30:21.319Z,0
2019-05-09T02:31:24.039Z,0
2019-05-09T02:32:23.970Z,0
2019-05-09T02:33:24.650Z,0
2019-05-09T02:34:24.442Z,0
2019-05-09T02:35:21.902Z,0
2019-05-09T02:36:22.856Z,0
2019-05-09T02:37:21.988Z,0
2019-05-09T02:38:23.096Z,0
2019-05-09T02:39:23.271Z,0
2019-05-09T02:40:22.287Z,0
2019-05-09T02:41:22.440Z,0
2019-05-09T02:42:22.546Z,0
2019-05-09T02:43:22.671Z,0
2019-05-09T02:44:22.801Z,0
2019-05-09T02:45:22.932Z,0
2019-05-09T02:46:23.046Z,0
2019-05-09T02:47:23.181Z,0
2019-05-09T02:48:23.285Z,0
2019-05-09T02:49:23.437Z,0
2019-05-09T02:50:23.587Z,0
2019-05-09T02:51:23.716Z,0
2019-05-09T02:52:23.827Z,0
2019-05-09T02:53:23.964Z,0
2019-05-09T02:54:24.083Z,0
2019-05-09T02:55:24.226Z,0
2019-05-09T02:56:24.343Z,0
2019-05-09T02:57:24.471Z,0
2019-05-09T02:58:24.596Z,0
2019-05-09T02:59:24.746Z,0
2019-05-09T03:00:24.882Z,0
2019-05-09T03:01:25.017Z,0
2019-05-09T03:02:25.134Z,0
2019-05-09T03:03:25.257Z,0
2019-05-09T03:04:28.047Z,0
2019-05-09T03:05:25.508Z,0
2019-05-09T03:06:28.252Z,0
2019-05-09T03:07:28.590Z,0
2019-05-09T03:08:25.764Z,0
2019-05-09T03:09:28.272Z,1
2019-05-09T03:10:28.819Z,1
2019-05-09T03:11:28.894Z,1
2019-05-09T03:12:34.616Z,0
2019-05-09T03:13:29.023Z,1
2019-05-09T03:14:28.587Z,1
2019-05-09T03:15:29.086Z,2
2019-05-09T03:16:29.265Z,1
2019-05-09T03:17:28.027Z,2
2019-05-09T03:18:28.629Z,2
2019-05-09T03:19:29.259Z,3
2019-05-09T03:20:28.846Z,3
2019-05-09T03:21:29.621Z,3
2019-05-09T03:22:28.852Z,4
2019-05-09T03:23:28.477Z,5
2019-05-09T03:24:28.722Z,4
2019-05-09T03:25:28.856Z,6
2019-05-09T03:26:29.240Z,7
2019-05-09T03:27:28.837Z,7
2019-05-09T03:28:28.320Z,9
2019-05-09T03:29:29.135Z,10
2019-05-09T03:30:29.034Z,12
2019-05-09T03:31:29.767Z,14
2019-05-09T03:32:29.617Z,16
2019-05-09T03:33:29.677Z,18
2019-05-09T03:34:30.012Z,21
2019-05-09T03:35:27.702Z,24
2019-05-09T03:36:28.839Z,27
2019-05-09T03:37:28.963Z,30
2019-05-09T03:38:28.476Z,35
2019-05-09T03:39:29.224Z,38
2019-05-09T03:40:28.346Z,44
2019-05-09T03:41:29.508Z,49
2019-05-09T03:42:37.875Z,53
2019-05-09T03:43:29.536Z,59
2019-05-09T03:44:28.654Z,65
2019-05-09T03:45:29.771Z,72
2019-05-09T03:46:28.934Z,79
2019-05-09T03:47:29.897Z,87
2019-05-09T03:48:28.976Z,95
2019-05-09T03:49:29.113Z,104
2019-05-09T03:50:29.184Z,113
2019-05-09T03:51:29.266Z,121
2019-05-09T03:52:29.378Z,129
2019-05-09T03:53:29.477Z,139
2019-05-09T03:54:29.566Z,150
2019-05-09T03:55:29.637Z,161
2019-05-09T03:56:29.713Z,169
2019-05-09T03:57:29.753Z,180
2019-05-09T03:58:29.890Z,191
2019-05-09T03:59:29.955Z,206
2019-05-09T04:00:30.028Z,217
2019-05-09T04:01:30.097Z,226
2019-05-09T04:02:30.201Z,243
2019-05-09T04:03:30.256Z,253
2019-05-09T04:04:30.337Z,265
2019-05-09T04:05:30.394Z,281
2019-05-09T04:06:30.464Z,293
2019-05-09T04:07:30.574Z,303
2019-05-09T04:08:30.671Z,322
2019-05-09T04:09:30.751Z,331
2019-05-09T04:10:30.856Z,345
2019-05-09T04:11:30.934Z,357
2019-05-09T04:12:31.015Z,374
2019-05-09T04:13:32.107Z,390
2019-05-09T04:14:31.253Z,404
2019-05-09T04:15:31.322Z,411
2019-05-09T04:16:31.388Z,433
2019-05-09T04:17:32.498Z,451
2019-05-09T04:18:31.570Z,468
2019-05-09T04:19:31.631Z,476
2019-05-09T04:20:31.705Z,486
2019-05-09T04:21:31.768Z,509
2019-05-09T04:22:31.879Z,524
2019-05-09T04:23:31.963Z,537
2019-05-09T04:24:32.011Z,552
2019-05-09T04:25:32.084Z,559
2019-05-09T04:26:32.157Z,582
2019-05-09T04:27:32.263Z,596
2019-05-09T04:28:32.344Z,604
2019-05-09T04:29:32.420Z,638
2019-05-09T04:30:32.493Z,649
2019-05-09T04:31:32.575Z,652
2019-05-09T04:32:32.696Z,685
2019-05-09T04:33:32.777Z,708
2019-05-09T04:34:32.877Z,705
2019-05-09T04:35:32.966Z,750
2019-05-09T04:36:33.079Z,755
2019-05-09T04:37:33.188Z,788
2019-05-09T04:38:33.274Z,796
2019-05-09T04:39:33.344Z,807
2019-05-09T04:40:37.548Z,836
2019-05-09T04:41:33.474Z,852
2019-05-09T04:42:34.961Z,857
2019-05-09T04:43:36.499Z,870
2019-05-09T04:44:33.674Z,873
2019-05-09T04:45:37.828Z,887
2019-05-09T04:46:33.804Z,915
2019-05-09T04:47:38.528Z,927
2019-05-09T04:48:37.255Z,934
2019-05-09T04:49:39.166Z,948
2019-05-09T04:50:37.504Z,936
2019-05-09T04:51:34.214Z,943
2019-05-09T04:52:34.273Z,975
2019-05-09T04:53:34.377Z,973
2019-05-09T04:54:34.429Z,974
2019-05-09T04:55:34.524Z,990
2019-05-09T04:56:34.592Z,1012
2019-05-09T04:57:34.647Z,1041
2019-05-09T04:58:34.749Z,1059
2019-05-09T04:59:37.147Z,1070
2019-05-09T05:00:34.886Z,1063
2019-05-09T05:01:35.044Z,1066
2019-05-09T05:02:35.113Z,1049
2019-05-09T05:03:37.074Z,1046
2019-05-09T05:04:37.326Z,1078
2019-05-09T05:05:37.106Z,1099
2019-05-09T05:06:35.524Z,1117
2019-05-09T05:07:37.586Z,1125
2019-05-09T05:08:37.516Z,1130
2019-05-09T05:09:37.334Z,1131
2019-05-09T05:10:37.317Z,1134
2019-05-09T05:11:37.773Z,1140
2019-05-09T05:12:37.891Z,1170
2019-05-09T05:13:38.276Z,1198
2019-05-09T05:14:38.167Z,1218
2019-05-09T05:15:37.758Z,1235
2019-05-09T05:16:39.143Z,1235
2019-05-09T05:17:37.734Z,1209
2019-05-09T05:18:37.373Z,1196
2019-05-09T05:19:38.263Z,1205
2019-05-09T05:20:38.013Z,1227
2019-05-09T05:21:37.933Z,1232
2019-05-09T05:22:38.663Z,1262
2019-05-09T05:23:38.166Z,1280
2019-05-09T05:24:38.141Z,1286
2019-05-09T05:25:38.227Z,1329
2019-05-09T05:26:38.247Z,1322
2019-05-09T05:27:38.366Z,1311
2019-05-09T05:28:38.141Z,1325
2019-05-09T05:29:38.566Z,1335
2019-05-09T05:30:37.602Z,1348
2019-05-09T05:31:38.901Z,1366
2019-05-09T05:32:38.561Z,1366
2019-05-09T05:33:38.869Z,1389
2019-05-09T05:34:38.963Z,1436
2019-05-09T05:35:38.095Z,1438
2019-05-09T05:36:39.177Z,1462
2019-05-09T05:37:38.746Z,1513
2019-05-09T05:38:39.334Z,1607
2019-05-09T05:39:38.421Z,1774
2019-05-09T05:40:44.690Z,2141
2019-05-09T05:41:39.599Z,2622
2019-05-09T05:42:39.077Z,2777
2019-05-09T05:43:44.237Z,2933
2019-05-09T05:44:38.846Z,2998
2019-05-09T05:45:38.941Z,2952
2019-05-09T05:46:39.026Z,2780
2019-05-09T05:47:40.075Z,2624
2019-05-09T05:48:39.122Z,2283
2019-05-09T05:49:40.192Z,2150
2019-05-09T05:50:39.287Z,2059
2019-05-09T05:51:39.371Z,1911
2019-05-09T05:52:39.486Z,1844
2019-05-09T05:53:40.593Z,1719
2019-05-09T05:54:39.845Z,1706
2019-05-09T05:55:39.761Z,1703
2019-05-09T05:56:40.863Z,1718
2019-05-09T05:57:39.928Z,1713
2019-05-09T05:58:40.031Z,1713
2019-05-09T05:59:41.040Z,1693
2019-05-09T06:00:40.228Z,1685
2019-05-09T06:01:40.309Z,1687
2019-05-09T06:02:40.401Z,1694
2019-05-09T06:03:40.523Z,1708
2019-05-09T06:04:40.653Z,1725
2019-05-09T06:05:40.817Z,1712
2019-05-09T06:06:41.903Z,1692
2019-05-09T06:07:41.033Z,1668
2019-05-09T06:08:41.175Z,1681
2019-05-09T06:09:41.315Z,1762
2019-05-09T06:10:41.476Z,1808
2019-05-09T06:11:41.580Z,1813
2019-05-09T06:12:41.647Z,1789
2019-05-09T06:13:52.456Z,1802
2019-05-09T06:14:42.794Z,1821
2019-05-09T06:15:41.939Z,1823
2019-05-09T06:16:41.904Z,1827
2019-05-09T06:17:41.910Z,1850
2019-05-09T06:18:41.979Z,1852
2019-05-09T06:19:42.123Z,1871
2019-05-09T06:20:45.364Z,1891
2019-05-09T06:21:42.118Z,1887
2019-05-09T06:22:43.232Z,1916
2019-05-09T06:23:42.345Z,1921
2019-05-09T06:24:42.497Z,1922
2019-05-09T06:25:42.673Z,1930
2019-05-09T06:26:42.679Z,1929
2019-05-09T06:27:42.773Z,1925
2019-05-09T06:28:42.877Z,1944
2019-05-09T06:29:42.989Z,1977
2019-05-09T06:30:43.108Z,1984
2019-05-09T06:31:43.239Z,1994
2019-05-09T06:32:43.349Z,1999
2019-05-09T06:33:46.845Z,2008
2019-05-09T06:34:44.474Z,1997
2019-05-09T06:35:43.515Z,2057
2019-05-09T06:36:43.644Z,2067
2019-05-09T06:37:43.753Z,2087
2019-05-09T06:38:43.898Z,2107
2019-05-09T06:39:43.998Z,2125
2019-05-09T06:40:44.076Z,2147
2019-05-09T06:41:44.173Z,2143
2019-05-09T06:42:44.281Z,2217
2019-05-09T06:43:44.550Z,2299
2019-05-09T06:44:44.525Z,2552
2019-05-09T06:45:44.671Z,2851
2019-05-09T06:46:44.806Z,3099
2019-05-09T06:47:44.888Z,3163
2019-05-09T06:48:45.001Z,3650
2019-05-09T06:49:45.041Z,4120
2019-05-09T06:50:45.053Z,4298
2019-05-09T06:51:47.437Z,5319
2019-05-09T06:52:45.173Z,6572
2019-05-09T06:53:45.189Z,7367
2019-05-09T06:54:45.210Z,7893
2019-05-09T06:55:47.410Z,7733
2019-05-09T06:56:47.345Z,7692
2019-05-09T06:57:45.374Z,7873
2019-05-09T06:58:45.445Z,7676
2019-05-09T06:59:45.473Z,7520
2019-05-09T07:00:45.512Z,7694
2019-05-09T07:01:45.531Z,7445
2019-05-09T07:02:47.804Z,7418
2019-05-09T07:03:48.034Z,7739
2019-05-09T07:04:47.560Z,7797
2019-05-09T07:05:45.587Z,7733
2019-05-09T07:06:48.009Z,8236
2019-05-09T07:07:45.699Z,7785
2019-05-09T07:08:47.661Z,7668
2019-05-09T07:09:47.687Z,7562
2019-05-09T07:10:45.773Z,7479
2019-05-09T07:11:45.791Z,7442
2019-05-09T07:12:45.849Z,7594
2019-05-09T07:13:47.285Z,7745
2019-05-09T07:14:48.615Z,7353
2019-05-09T07:15:47.998Z,7181
2019-05-09T07:16:47.840Z,7021
2019-05-09T07:17:47.983Z,7614
2019-05-09T07:18:48.211Z,8255
2019-05-09T07:19:48.380Z,9332
2019-05-09T07:20:47.709Z,9293
2019-05-09T07:21:48.275Z,9039
2019-05-09T07:22:48.068Z,8059
2019-05-09T07:23:47.932Z,7505
2019-05-09T07:24:48.049Z,6446
2019-05-09T07:25:47.818Z,5914
2019-05-09T07:26:47.838Z,6196
2019-05-09T07:27:48.244Z,7242
2019-05-09T07:28:48.327Z,7342
2019-05-09T07:29:48.085Z,6870
2019-05-09T07:30:48.062Z,6528
2019-05-09T07:31:47.986Z,6173
2019-05-09T07:32:48.419Z,6328
2019-05-09T07:33:47.753Z,6289
2019-05-09T07:34:47.405Z,6366
2019-05-09T07:35:47.634Z,6720
2019-05-09T07:36:47.680Z,7162
2019-05-09T07:37:48.707Z,7900
2019-05-09T07:38:47.821Z,8377
2019-05-09T07:39:48.407Z,8897
2019-05-09T07:40:47.876Z,9251
2019-05-09T07:41:47.975Z,9890
2019-05-09T07:42:48.148Z,10827
2019-05-09T07:43:47.979Z,10218
2019-05-09T07:44:51.474Z,9525
2019-05-09T07:45:47.375Z,10393
2019-05-09T07:46:47.437Z,11202
2019-05-09T07:47:47.772Z,8907
2019-05-09T07:48:48.294Z,8693
2019-05-09T07:49:48.264Z,8197
2019-05-09T07:50:48.060Z,7611
2019-05-09T07:51:47.725Z,7219
2019-05-09T07:52:47.730Z,6969
2019-05-09T07:53:48.314Z,7760
2019-05-09T07:54:48.300Z,8486
2019-05-09T07:55:48.075Z,7816
2019-05-09T07:56:48.563Z,7084
2019-05-09T07:57:54.440Z,14893
2019-05-09T07:58:47.726Z,9902
2019-05-09T07:59:47.842Z,22472
2019-05-09T08:00:48.255Z,15128
2019-05-09T08:01:48.701Z,28128
2019-05-09T08:02:47.766Z,27040
2019-05-09T08:03:48.962Z,27432
2019-05-09T08:04:48.992Z,25896
2019-05-09T08:05:48.418Z,25528
2019-05-09T08:06:48.776Z,34192
2019-05-09T08:07:48.625Z,34096
2019-05-09T08:08:48.484Z,33520
2019-05-09T08:09:48.498Z,37520
2019-05-09T08:10:48.521Z,43920
2019-05-09T08:11:48.545Z,50208
2019-05-09T08:12:48.541Z,53432
2019-05-09T08:13:48.821Z,52664
2019-05-09T08:15:06.569Z,50280
2019-05-09T08:15:48.767Z,48056
2019-05-09T08:16:48.897Z,50512
2019-05-09T08:17:48.748Z,56880
2019-05-09T08:18:48.950Z,65328
2019-05-09T08:19:48.490Z,65535
2019-05-09T08:20:49.147Z,65535
2019-05-09T08:21:48.203Z,65535
2019-05-09T08:22:56.490Z,63224
2019-05-09T08:23:48.686Z,53456
2019-05-09T08:24:48.478Z,42040
2019-05-09T08:25:48.624Z,0
2019-05-09T08:26:49.464Z,29272
2019-05-09T08:27:48.467Z,19848
2019-05-09T08:28:49.556Z,20904
2019-05-09T08:29:48.617Z,11938
2019-05-09T08:30:49.619Z,31008
2019-05-09T08:31:48.713Z,10106
2019-05-09T08:32:49.669Z,24712
2019-05-09T08:33:49.825Z,12775
2019-05-09T08:34:49.849Z,7703
2019-05-09T08:35:52.457Z,11976
2019-05-09T08:36:49.852Z,21112
2019-05-09T08:37:48.934Z,0
2019-05-09T08:38:49.922Z,4910
2019-05-09T08:39:49.126Z,7479
2019-05-09T08:40:49.155Z,6756
2019-05-09T08:41:50.216Z,7672
2019-05-09T08:42:49.362Z,3953
2019-05-09T08:43:50.378Z,4998
2019-05-09T08:44:49.677Z,7080
2019-05-09T08:45:49.510Z,20313
2019-05-09T08:46:49.526Z,7076
2019-05-09T08:47:49.560Z,8984
2019-05-09T08:48:49.581Z,18616
2019-05-09T08:49:49.784Z,16791
2019-05-09T08:50:49.735Z,9593
2019-05-09T08:52:05.654Z,13709
2019-05-09T08:52:50.796Z,13067
2019-05-09T08:53:49.829Z,12218
2019-05-09T08:54:49.910Z,35712
2019-05-09T08:55:49.978Z,24488
2019-05-09T08:56:50.040Z,6115
2019-05-09T08:57:50.062Z,6767
2019-05-09T08:58:50.078Z,10288
2019-05-09T08:59:51.066Z,9973
2019-05-09T09:00:50.288Z,8414
2019-05-09T09:02:11.019Z,6461
2019-05-09T09:02:51.370Z,9432
2019-05-09T09:03:50.386Z,5873
2019-05-09T09:04:50.383Z,5520
2019-05-09T09:05:50.437Z,4878
2019-05-09T09:06:50.444Z,4349
2019-05-09T09:07:50.520Z,4323
2019-05-09T09:08:50.606Z,4242
2019-05-09T09:09:50.647Z,4695
2019-05-09T09:10:50.774Z,4765
2019-05-09T09:11:50.789Z,4834
2019-05-09T09:12:50.985Z,5185
2019-05-09T09:13:50.952Z,5834
2019-05-09T09:14:51.031Z,6901
2019-05-09T09:16:07.453Z,9253
2019-05-09T09:16:52.169Z,8881
2019-05-09T09:17:51.156Z,12083
2019-05-09T09:18:51.286Z,8095
2019-05-09T09:19:51.385Z,10206
2019-05-09T09:20:51.573Z,9785
2019-05-09T09:21:51.525Z,6879
2019-05-09T09:22:51.774Z,6779
2019-05-09T09:23:51.588Z,5335
2019-05-09T09:24:51.656Z,5353
2019-05-09T09:25:51.773Z,5189
2019-05-09T09:26:51.757Z,4887
2019-05-09T09:27:51.770Z,5267
2019-05-09T09:28:51.767Z,5907
2019-05-09T09:29:51.782Z,6794
2019-05-09T09:30:52.830Z,6892
2019-05-09T09:31:51.895Z,5572
2019-05-09T09:32:51.916Z,7290
2019-05-09T09:33:52.008Z,6999
2019-05-09T09:34:52.029Z,8845
2019-05-09T09:35:52.192Z,9897
2019-05-09T09:36:52.227Z,11811
2019-05-09T09:37:53.209Z,12577
2019-05-09T09:38:52.374Z,10983
2019-05-09T09:39:53.386Z,8819
2019-05-09T09:40:52.415Z,8593
2019-05-09T09:41:52.448Z,9761
2019-05-09T09:42:52.442Z,11612
2019-05-09T09:43:52.451Z,11793
2019-05-09T09:44:52.445Z,10631
2019-05-09T09:46:06.087Z,8800
2019-05-09T09:46:53.774Z,8838
2019-05-09T09:47:52.793Z,10230
2019-05-09T09:48:52.819Z,10421
2019-05-09T09:49:55.042Z,8750
2019-05-09T09:50:52.826Z,9799
2019-05-09T09:51:52.910Z,10142
2019-05-09T09:52:52.825Z,9889
2019-05-09T09:53:52.860Z,9966
2019-05-09T09:54:52.876Z,11054
2019-05-09T09:55:52.870Z,12617
2019-05-09T09:56:52.912Z,11082
2019-05-09T09:57:52.922Z,12730
2019-05-09T09:58:52.949Z,16656
2019-05-09T09:59:53.004Z,10543
2019-05-09T10:00:53.031Z,8431
2019-05-09T10:01:54.078Z,10106
2019-05-09T10:02:53.127Z,8841
2019-05-09T10:03:53.164Z,11355
2019-05-09T10:04:54.166Z,11266
2019-05-09T10:05:53.131Z,7490
2019-05-09T10:06:53.427Z,7124
2019-05-09T10:07:53.293Z,8755
2019-05-09T10:08:53.299Z,10305
2019-05-09T10:09:53.297Z,12803
2019-05-09T10:10:53.302Z,14867
2019-05-09T10:11:56.758Z,9719
2019-05-09T10:12:53.408Z,8135
2019-05-09T10:13:54.420Z,8526
2019-05-09T10:14:53.439Z,9525
2019-05-09T10:15:53.454Z,6574
2019-05-09T10:16:53.447Z,6094
2019-05-09T10:17:53.490Z,5980
2019-05-09T10:18:53.546Z,7480
2019-05-09T10:19:53.574Z,10498
2019-05-09T10:20:53.676Z,20760
2019-05-09T10:21:53.695Z,32728
2019-05-09T10:22:59.396Z,29160
2019-05-09T10:23:54.824Z,55288
2019-05-09T10:24:53.835Z,17824
2019-05-09T10:25:53.846Z,9131
2019-05-09T10:26:53.859Z,7583
2019-05-09T10:27:53.914Z,7893
2019-05-09T10:28:53.959Z,6604
2019-05-09T10:29:53.977Z,5822
2019-05-09T10:30:53.983Z,5425
2019-05-09T10:31:53.988Z,5776
2019-05-09T10:32:54.037Z,5532
2019-05-09T10:33:54.125Z,5174
2019-05-09T10:34:54.220Z,5033
2019-05-09T10:35:54.277Z,5017
2019-05-09T10:36:54.262Z,5352
2019-05-09T10:37:55.274Z,5087
2019-05-09T10:38:54.301Z,5335
2019-05-09T10:39:54.308Z,5575
2019-05-09T10:40:54.312Z,5770
2019-05-09T10:41:54.359Z,7123
2019-05-09T10:42:54.375Z,7687
2019-05-09T10:43:54.408Z,7796
2019-05-09T10:44:54.432Z,34912
2019-05-09T10:45:54.446Z,14670
2019-05-09T10:46:58.493Z,13664
2019-05-09T10:47:54.611Z,14542
2019-05-09T10:48:54.643Z,65535
2019-05-09T10:49:54.679Z,65535
2019-05-09T10:50:55.128Z,65535
2019-05-09T10:51:57.896Z,9962
2019-05-09T10:52:54.829Z,7714
2019-05-09T10:53:54.899Z,5940
2019-05-09T10:54:54.905Z,5069
2019-05-09T10:55:54.919Z,5233
2019-05-09T10:56:54.996Z,5778
2019-05-09T10:57:54.994Z,6438
2019-05-09T10:58:55.029Z,6953
2019-05-09T10:59:57.692Z,7595
2019-05-09T11:00:55.072Z,8831
2019-05-09T11:01:57.672Z,10054
2019-05-09T11:02:55.076Z,11752
2019-05-09T11:03:55.139Z,14490
2019-05-09T11:04:57.405Z,25072
2019-05-09T11:05:55.190Z,51864
2019-05-09T11:06:55.206Z,65535
2019-05-09T11:07:55.257Z,65535
2019-05-09T11:08:55.307Z,65535
2019-05-09T11:09:58.734Z,51712
2019-05-09T11:10:57.998Z,13362
2019-05-09T11:11:58.708Z,10756
2019-05-09T11:12:55.631Z,9167
2019-05-09T11:13:58.184Z,7538
2019-05-09T11:14:55.718Z,6144
2019-05-09T11:15:58.135Z,5345
2019-05-09T11:17:07.628Z,5882
2019-05-09T11:17:57.647Z,6209
2019-05-09T11:18:58.224Z,6102
2019-05-09T11:19:58.460Z,5827
2019-05-09T11:20:58.066Z,5933
2019-05-09T11:21:58.396Z,5848
2019-05-09T11:22:58.168Z,6027
2019-05-09T11:23:58.241Z,6635
2019-05-09T11:24:57.905Z,7068
2019-05-09T11:25:57.887Z,7034
2019-05-09T11:26:58.592Z,6842
2019-05-09T11:28:08.065Z,7011
2019-05-09T11:28:58.694Z,7373
2019-05-09T11:29:57.752Z,7388
2019-05-09T11:30:58.229Z,7560
2019-05-09T11:31:58.464Z,8074
2019-05-09T11:32:56.224Z,8098
2019-05-09T11:33:57.821Z,8562
2019-05-09T11:34:57.563Z,8872
2019-05-09T11:35:58.037Z,8935
2019-05-09T11:36:57.859Z,9689
2019-05-09T11:37:58.678Z,10376
2019-05-09T11:39:00.351Z,10791
2019-05-09T11:39:58.098Z,11429
2019-05-09T11:40:57.877Z,12266
2019-05-09T11:41:58.485Z,13372
2019-05-09T11:42:56.868Z,14943
2019-05-09T11:43:59.283Z,23656
2019-05-09T11:44:58.184Z,65535
2019-05-09T11:45:58.614Z,21552
2019-05-09T11:46:58.302Z,25088
2019-05-09T11:47:58.198Z,20352
2019-05-09T11:48:58.550Z,15410
2019-05-09T11:49:57.754Z,14551
2019-05-09T11:50:58.870Z,17576
2019-05-09T11:51:57.732Z,27608
2019-05-09T11:52:59.636Z,24312
2019-05-09T11:53:58.059Z,65535
2019-05-09T11:54:57.987Z,22288
2019-05-09T11:55:58.200Z,20392
2019-05-09T11:56:58.207Z,55400
2019-05-09T11:57:59.112Z,20992
2019-05-09T11:58:58.241Z,65535
2019-05-09T11:59:58.372Z,16824
2019-05-09T12:01:01.930Z,18208
2019-05-09T12:01:58.812Z,51864
2019-05-09T12:02:58.568Z,16024
2019-05-09T12:03:58.431Z,14441
2019-05-09T12:04:58.429Z,15701
2019-05-09T12:05:58.464Z,18168
2019-05-09T12:06:58.472Z,19576
2019-05-09T12:07:58.491Z,21224
2019-05-09T12:08:59.005Z,20024
2019-05-09T12:09:59.012Z,18568
2019-05-09T12:10:57.968Z,17104
2019-05-09T12:11:59.114Z,16144
2019-05-09T12:12:57.803Z,16632
2019-05-09T12:13:58.839Z,15712
2019-05-09T12:14:58.690Z,14952
2019-05-09T12:15:58.832Z,13989
2019-05-09T12:16:57.855Z,13301
2019-05-09T12:18:04.008Z,14933
2019-05-09T12:18:59.004Z,16280
2019-05-09T12:20:09.319Z,17000
2019-05-09T12:20:59.094Z,18840
2019-05-09T12:21:59.207Z,19784
2019-05-09T12:22:59.198Z,22016
2019-05-09T12:23:58.471Z,33440
2019-05-09T12:24:59.446Z,26664
2019-05-09T12:25:58.314Z,33216
2019-05-09T12:27:01.272Z,34480
2019-05-09T12:27:58.651Z,29416
2019-05-09T12:28:59.335Z,31296
2019-05-09T12:29:59.320Z,29112
2019-05-09T12:30:58.361Z,25320
2019-05-09T12:31:59.432Z,26968
2019-05-09T12:32:59.435Z,34544
2019-05-09T12:33:59.099Z,17456
2019-05-09T12:34:59.469Z,13213
2019-05-09T12:35:59.520Z,12309
2019-05-09T12:36:59.574Z,12206
2019-05-09T12:37:59.594Z,21320
2019-05-09T12:38:59.305Z,18832
2019-05-09T12:39:59.631Z,59424
2019-05-09T12:41:00.465Z,65535
2019-05-09T12:41:58.688Z,65535
2019-05-09T12:42:59.701Z,65535
2019-05-09T12:43:59.689Z,65535
2019-05-09T12:44:59.011Z,65535
2019-05-09T12:45:59.724Z,65535
2019-05-09T12:46:58.833Z,65535
2019-05-09T12:48:10.108Z,65535
2019-05-09T12:48:59.980Z,65535
2019-05-09T12:50:02.532Z,10896
2019-05-09T12:50:59.997Z,7752
2019-05-09T12:51:59.275Z,6659
2019-05-09T12:52:59.119Z,5635
2019-05-09T12:53:59.315Z,4729
2019-05-09T12:55:00.156Z,3930
2019-05-09T12:55:59.236Z,3584
2019-05-09T12:56:59.359Z,3501
2019-05-09T12:57:59.686Z,3455
2019-05-09T12:59:00.596Z,3755
2019-05-09T12:59:59.648Z,3977
2019-05-09T13:00:59.664Z,4256
2019-05-09T13:01:59.822Z,4532
2019-05-09T13:02:59.756Z,4802
2019-05-09T13:03:59.773Z,5252
2019-05-09T13:05:00.778Z,6057
2019-05-09T13:06:00.001Z,6135
2019-05-09T13:07:00.038Z,6276
2019-05-09T13:08:00.084Z,6558
2019-05-09T13:09:01.075Z,7174
2019-05-09T13:10:00.235Z,7763
2019-05-09T13:11:02.412Z,8133
2019-05-09T13:12:00.254Z,9200
2019-05-09T13:13:00.389Z,10026
2019-05-09T13:14:00.281Z,10759
2019-05-09T13:15:01.433Z,11452
2019-05-09T13:16:00.434Z,12294
2019-05-09T13:17:01.440Z,13272
2019-05-09T13:18:00.484Z,14980
2019-05-09T13:19:02.510Z,16304
2019-05-09T13:20:00.649Z,17096
2019-05-09T13:21:00.645Z,16552
2019-05-09T13:22:00.753Z,16176
2019-05-09T13:23:00.973Z,17176
2019-05-09T13:24:00.984Z,30056
2019-05-09T13:25:02.901Z,34176
2019-05-09T13:26:01.031Z,18360
2019-05-09T13:27:01.043Z,20032
2019-05-09T13:28:01.234Z,14454
2019-05-09T13:29:01.085Z,12799
2019-05-09T13:30:01.108Z,12720
2019-05-09T13:31:01.182Z,12739
2019-05-09T13:32:01.185Z,12695
2019-05-09T13:33:01.310Z,12697
2019-05-09T13:34:02.314Z,12881
2019-05-09T13:35:01.474Z,13287
2019-05-09T13:36:01.477Z,13367
2019-05-09T13:37:01.470Z,12952